Time;durP1;ratioP1;P1;durP2;ratioP2;P2;SDS_P1;SDS_P2;PMS_P1;PMS_P2;Temp;Humidity;BMP_temperature;BMP_pressure;BME280_temperature;BME280_humidity;BME280_pressure;Samples;Min_cycle;Max_cycle;Signal;HPM_P1;HPM_P2
2021/11/07 00:02:36;;;;;;;9.15;7.58;;;;;;;7.37;70.62;100550.21;1742597;82;21541;-75
2021/11/07 00:05:02;;;;;;;10.53;7.35;;;;;;;7.38;70.54;100547.85;1741828;81;21579;-76
2021/11/07 00:07:30;;;;;;;10.68;8.03;;;;;;;7.39;70.51;100541.44;1741243;82;20977;-76
2021/11/07 00:12:28;;;;;;;8.88;7.25;;;;;;;7.40;70.52;100544.95;1741784;82;20994;-76
2021/11/07 00:14:52;;;;;;;8.88;7.97;;;;;;;7.41;70.51;100539.91;1727544;81;21079;-77
2021/11/07 00:17:24;;;;;;;9.33;7.08;;;;;;;7.43;70.53;100529.83;1727096;81;21169;-76
2021/11/07 00:19:53;;;;;;;7.45;5.65;;;;;;;7.43;70.49;100535.18;1696422;83;21510;-77
2021/11/07 00:24:55;;;;;;;9.73;7.10;;;;;;;7.44;70.46;100523.42;1712216;82;21050;-74
2021/11/07 00:27:26;;;;;;;7.92;7.08;;;;;;;7.47;70.49;100522.20;1739922;82;21030;-71
2021/11/07 00:30:08;;;;;;;11.63;7.55;;;;;;;7.50;70.43;100523.11;1742136;82;21532;-71
2021/11/07 00:32:32;;;;;;;9.58;7.67;;;;;;;7.54;70.43;100517.63;1738622;82;21000;-71
2021/11/07 00:37:41;;;;;;;11.88;6.90;;;;;;;7.63;70.50;100521.21;1689234;82;20995;-77
2021/11/07 00:45:23;;;;;;;8.20;6.58;;;;;;;7.67;70.18;100510.41;1702361;83;21599;-71
2021/11/07 00:47:48;;;;;;;9.25;6.90;;;;;;;7.68;70.17;100512.55;1761744;80;21896;-70
2021/11/07 00:50:14;;;;;;;11.18;6.92;;;;;;;7.67;70.08;100505.06;1768832;80;20956;-74
2021/11/07 00:53:19;;;;;;;9.40;7.12;;;;;;;7.67;70.05;100497.55;1761622;80;21082;-71
2021/11/07 01:00:26;;;;;;;8.15;6.85;;;;;;;7.66;70.08;100494.55;1767925;80;21095;-71
2021/11/07 01:02:43;;;;;;;8.95;7.72;;;;;;;7.63;70.13;100494.44;1787171;80;21551;-73
2021/11/07 01:05:20;;;;;;;9.63;7.55;;;;;;;7.61;70.22;100493.02;1763457;80;20963;-72
2021/11/07 01:07:47;;;;;;;10.98;8.20;;;;;;;7.61;70.29;100484.99;1771810;80;21495;-72
2021/11/07 01:10:15;;;;;;;11.43;8.70;;;;;;;7.62;70.34;100484.79;1743029;81;20991;-73
2021/11/07 01:12:42;;;;;;;13.68;7.12;;;;;;;7.64;70.35;100475.19;1768951;81;21144;-72
2021/11/07 01:15:10;;;;;;;9.90;7.58;;;;;;;7.67;70.34;100478.29;1791054;79;21515;-72
2021/11/07 01:17:36;;;;;;;12.82;8.38;;;;;;;7.72;70.24;100474.97;1766340;80;20939;-74
2021/11/07 01:20:07;;;;;;;9.65;7.40;;;;;;;7.76;70.21;100481.55;1785188;80;21553;-72
2021/11/07 01:23:26;;;;;;;8.98;7.42;;;;;;;7.79;70.10;100485.13;1765265;80;21034;-73
2021/11/07 01:25:04;;;;;;;7.08;6.37;;;;;;;7.80;70.04;100482.76;1753036;81;21794;-73
2021/11/07 01:27:39;;;;;;;12.05;7.95;;;;;;;7.75;70.02;100476.70;1733742;82;21610;-73
2021/11/07 01:30:04;;;;;;;13.20;8.23;;;;;;;7.73;70.09;100469.90;1733837;82;20939;-71
2021/11/07 01:32:36;;;;;;;7.55;6.37;;;;;;;7.71;70.15;100463.44;1792700;80;21007;-74
2021/11/07 01:35:03;;;;;;;8.08;6.67;;;;;;;7.71;70.23;100463.44;1722482;81;21015;-73
2021/11/07 01:37:29;;;;;;;11.28;8.08;;;;;;;7.70;70.27;100455.09;1669768;84;21148;-73
2021/11/07 01:40:04;;;;;;;8.93;7.95;;;;;;;7.68;70.34;100460.34;1706892;82;20974;-74
2021/11/07 01:42:53;;;;;;;12.20;7.87;;;;;;;7.67;70.41;100461.39;1708528;82;21030;-72
2021/11/07 01:44:59;;;;;;;9.55;7.20;;;;;;;7.66;70.50;100467.78;1774901;79;20993;-72
2021/11/07 01:47:25;;;;;;;8.70;6.72;;;;;;;7.65;70.57;100462.94;1814425;77;21110;-70
2021/11/07 01:49:53;;;;;;;8.08;6.75;;;;;;;7.66;70.60;100466.44;1799402;79;21757;-69
2021/11/07 01:52:21;;;;;;;7.97;7.17;;;;;;;7.65;70.59;100455.42;1763709;80;20924;-70
2021/11/07 01:57:20;;;;;;;11.45;7.35;;;;;;;7.63;70.71;100462.83;1793465;80;21030;-70
2021/11/07 01:59:51;;;;;;;8.18;7.20;;;;;;;7.65;70.79;100456.76;1764671;80;20897;-72
2021/11/07 02:02:18;;;;;;;10.28;7.60;;;;;;;7.67;70.74;100453.37;1762406;80;21080;-73
2021/11/07 02:04:45;;;;;;;8.90;6.80;;;;;;;7.67;70.71;100454.70;1788048;79;20961;-73
2021/11/07 02:07:11;;;;;;;9.28;7.35;;;;;;;7.70;70.74;100456.95;1767559;79;20941;-72
2021/11/07 02:09:37;;;;;;;11.95;7.80;;;;;;;7.68;70.69;100452.30;1748181;81;21056;-73
2021/11/07 02:12:06;;;;;;;11.63;8.10;;;;;;;7.60;70.84;100460.07;1768049;81;21482;-73
2021/11/07 02:14:32;;;;;;;9.25;7.00;;;;;;;7.55;70.97;100463.89;1756147;80;21091;-74
2021/11/07 02:16:59;;;;;;;11.30;8.68;;;;;;;7.54;71.15;100458.74;1758395;80;21059;-75
2021/11/07 02:19:28;;;;;;;11.73;8.75;;;;;;;7.49;71.27;100463.39;1778644;80;20956;-79
2021/11/07 02:21:54;;;;;;;10.68;7.50;;;;;;;7.45;71.41;100467.53;1758082;81;20997;-77
2021/11/07 02:24:20;;;;;;;7.62;6.20;;;;;;;7.42;71.56;100469.30;1700890;83;21036;-79
2021/11/07 02:26:54;;;;;;;10.60;7.42;;;;;;;7.40;71.69;100463.32;1746412;82;21078;-80
2021/11/07 02:29:22;;;;;;;11.40;7.05;;;;;;;7.37;71.79;100471.27;1733288;81;21658;-83
2021/11/07 02:31:50;;;;;;;15.40;7.40;;;;;;;7.35;71.90;100466.63;1733238;81;21548;-79
2021/11/07 02:34:17;;;;;;;11.12;6.20;;;;;;;7.36;71.97;100462.93;1769968;80;21043;-78
2021/11/07 02:36:45;;;;;;;20.30;9.73;;;;;;;7.35;72.14;100461.79;1763393;80;21469;-78
2021/11/07 02:39:15;;;;;;;10.18;8.20;;;;;;;7.36;72.21;100464.27;1786102;80;21958;-74
2021/11/07 02:41:43;;;;;;;10.80;7.65;;;;;;;7.39;72.17;100471.86;1786099;80;21505;-77
2021/11/07 02:44:10;;;;;;;8.98;7.20;;;;;;;7.42;72.15;100463.95;1785213;80;21032;-75
2021/11/07 02:46:37;;;;;;;10.50;7.53;;;;;;;7.43;72.10;100466.94;1774461;79;21089;-75
2021/11/07 02:49:04;;;;;;;9.70;7.50;;;;;;;7.43;72.07;100458.91;1781991;79;21043;-74
2021/11/07 02:51:35;;;;;;;10.00;7.60;;;;;;;7.43;72.09;100462.38;1748034;81;21088;-74
2021/11/07 02:54:05;;;;;;;10.35;7.58;;;;;;;7.41;72.05;100460.45;1738156;80;20991;-75
2021/11/07 02:56:32;;;;;;;10.08;7.87;;;;;;;7.37;72.12;100461.90;1774583;80;21044;-75
2021/11/07 02:58:58;;;;;;;11.60;8.05;;;;;;;7.31;72.25;100453.87;1770149;80;21013;-76
2021/11/07 03:01:26;;;;;;;12.07;8.93;;;;;;;7.27;72.39;100449.47;1763675;80;20986;-75
2021/11/07 03:03:59;;;;;;;10.60;8.80;;;;;;;7.24;72.53;100446.40;1763027;80;21080;-74
2021/11/07 03:06:21;;;;;;;7.90;7.10;;;;;;;7.21;72.67;100450.81;1785145;80;21004;-72
2021/11/07 03:08:50;;;;;;;12.58;8.13;;;;;;;7.18;72.81;100444.55;1763673;80;20960;-73
2021/11/07 03:11:18;;;;;;;10.68;8.00;;;;;;;7.15;72.96;100442.27;1783083;80;21315;-74
2021/11/07 03:13:48;;;;;;;12.45;7.95;;;;;;;7.16;73.09;100435.91;1785548;80;20968;-73
2021/11/07 03:16:16;;;;;;;8.35;7.20;;;;;;;7.18;73.17;100434.68;1786012;80;20967;-72
2021/11/07 03:18:43;;;;;;;8.15;6.50;;;;;;;7.20;73.16;100432.59;1763911;80;21063;-71
2021/11/07 03:21:11;;;;;;;10.25;8.18;;;;;;;7.20;73.16;100437.13;1785794;80;20975;-70
2021/11/07 03:23:39;;;;;;;9.68;7.65;;;;;;;7.17;73.19;100433.03;1760777;80;21043;-74
2021/11/07 03:26:09;;;;;;;9.70;8.60;;;;;;;7.12;73.32;100440.86;1785990;80;20967;-73
2021/11/07 03:28:34;;;;;;;9.55;8.30;;;;;;;7.08;73.43;100440.97;1785771;80;21415;-73
2021/11/07 03:33:41;;;;;;;10.18;8.75;;;;;;;6.98;73.76;100444.59;1783838;80;21072;-75
2021/11/07 03:36:05;;;;;;;12.68;8.63;;;;;;;6.95;73.92;100443.67;1780658;79;21602;-74
2021/11/07 03:38:30;;;;;;;12.55;9.33;;;;;;;6.89;74.10;100437.81;1779862;80;21111;-73
2021/11/07 03:40:56;;;;;;;14.73;10.13;;;;;;;6.85;74.27;100439.26;1757755;80;21130;-73
2021/11/07 03:43:25;;;;;;;14.23;9.90;;;;;;;6.82;74.37;100432.45;1784321;80;21487;-74
2021/11/07 03:45:52;;;;;;;10.60;9.40;;;;;;;6.83;74.52;100429.27;1785713;79;21016;-74
2021/11/07 03:48:19;;;;;;;13.98;10.03;;;;;;;6.81;74.60;100426.80;1773400;80;21565;-74
2021/11/07 03:50:45;;;;;;;11.63;8.88;;;;;;;6.79;74.66;100426.71;1726324;82;21505;-74
2021/11/07 03:53:12;;;;;;;12.58;10.32;;;;;;;6.75;74.73;100426.31;1766429;80;21061;-73
2021/11/07 03:55:38;;;;;;;12.03;9.90;;;;;;;6.71;74.83;100431.77;1771286;80;20960;-73
2021/11/07 03:58:05;;;;;;;10.48;9.18;;;;;;;6.68;74.90;100436.17;1748209;81;21186;-74
2021/11/07 04:00:31;;;;;;;12.30;10.23;;;;;;;6.66;74.94;100436.91;1767929;81;21542;-75
2021/11/07 04:02:57;;;;;;;11.95;10.58;;;;;;;6.62;74.98;100430.30;1768008;80;21036;-76
2021/11/07 04:05:24;;;;;;;14.43;10.08;;;;;;;6.60;75.04;100434.22;1760097;80;21164;-74
2021/11/07 04:07:51;;;;;;;13.13;9.88;;;;;;;6.55;75.13;100430.83;1759041;81;21009;-73
2021/11/07 04:10:17;;;;;;;10.88;9.55;;;;;;;6.50;75.23;100422.61;1743017;82;21019;-74
2021/11/07 04:12:43;;;;;;;10.72;9.50;;;;;;;6.48;75.37;100434.83;1720566;82;20992;-74
2021/11/07 04:15:11;;;;;;;12.50;10.45;;;;;;;6.49;75.50;100428.97;1749594;81;21051;-75
2021/11/07 04:17:37;;;;;;;14.78;10.70;;;;;;;6.51;75.56;100426.93;1730250;81;21292;-71
2021/11/07 04:20:06;;;;;;;12.65;9.55;;;;;;;6.53;75.53;100432.37;1715871;82;21547;-74
2021/11/07 04:22:33;;;;;;;13.43;10.53;;;;;;;6.51;75.55;100429.61;1717559;82;21050;-71
2021/11/07 04:24:59;;;;;;;12.47;11.18;;;;;;;6.46;75.56;100425.39;1743183;81;20946;-70
2021/11/07 04:27:27;;;;;;;13.80;10.50;;;;;;;6.42;75.68;100428.16;1693890;82;36861;-72
2021/11/07 04:29:54;;;;;;;10.35;9.18;;;;;;;6.39;75.79;100425.38;1717485;82;21027;-72
2021/11/07 04:32:20;;;;;;;10.43;9.15;;;;;;;6.36;75.87;100423.63;1743290;82;22203;-71
2021/11/07 04:34:47;;;;;;;13.05;10.35;;;;;;;6.32;75.99;100421.06;1719621;81;21517;-72
2021/11/07 04:37:13;;;;;;;11.08;9.93;;;;;;;6.27;76.22;100425.68;1732105;81;20996;-73
2021/11/07 04:39:40;;;;;;;10.72;8.73;;;;;;;6.23;76.46;100423.11;1721945;82;21071;-78
2021/11/07 04:42:07;;;;;;;15.63;9.55;;;;;;;6.20;76.57;100421.34;1729057;82;21143;-74
2021/11/07 04:44:34;;;;;;;11.70;9.88;;;;;;;6.22;76.72;100425.98;1768803;80;20980;-73
2021/11/07 04:47:00;;;;;;;14.30;9.35;;;;;;;6.25;76.71;100430.91;1791001;78;21024;-73
2021/11/07 04:49:27;;;;;;;14.25;10.03;;;;;;;6.26;76.76;100425.37;1791009;79;20908;-73
2021/11/07 04:51:53;;;;;;;12.13;9.93;;;;;;;6.29;76.72;100414.77;1791133;80;20972;-73
2021/11/07 04:54:20;;;;;;;12.80;10.15;;;;;;;6.30;76.69;100418.59;1766315;80;21088;-73
2021/11/07 04:56:47;;;;;;;15.08;9.95;;;;;;;6.32;76.64;100427.23;1790816;80;20941;-73
2021/11/07 04:59:13;;;;;;;14.90;11.12;;;;;;;6.31;76.60;100430.09;1790927;80;20949;-73
2021/11/07 05:01:40;;;;;;;15.00;10.75;;;;;;;6.28;76.61;100429.18;1789481;80;21517;-73
2021/11/07 05:04:07;;;;;;;14.07;10.85;;;;;;;6.24;76.65;100428.74;1765552;80;21042;-74
2021/11/07 05:06:35;;;;;;;12.82;9.83;;;;;;;6.21;76.71;100433.16;1754435;81;21822;-73
2021/11/07 05:09:03;;;;;;;14.87;10.43;;;;;;;6.18;76.83;100432.76;1761706;81;20992;-74
2021/11/07 05:11:32;;;;;;;19.75;10.72;;;;;;;6.14;76.92;100438.48;1725729;83;21542;-72
2021/11/07 05:14:00;;;;;;;15.68;10.85;;;;;;;6.14;77.08;100434.98;1752124;81;21020;-73
2021/11/07 05:16:27;;;;;;;16.85;11.33;;;;;;;6.13;77.16;100437.37;1747045;82;21107;-71
2021/11/07 05:18:54;;;;;;;20.12;12.37;;;;;;;6.18;77.18;100448.78;1782575;79;21073;-74
2021/11/07 05:21:23;;;;;;;13.32;10.53;;;;;;;6.18;77.06;100444.77;1798711;79;21016;-73
2021/11/07 05:23:49;;;;;;;17.37;11.93;;;;;;;6.19;77.05;100443.76;1792127;79;21527;-75
2021/11/07 05:26:16;;;;;;;15.25;11.03;;;;;;;6.16;76.98;100449.48;1797809;79;21024;-74
2021/11/07 05:28:43;;;;;;;16.17;11.60;;;;;;;6.13;77.01;100449.39;1798461;79;21028;-72
2021/11/07 05:31:09;;;;;;;19.35;12.33;;;;;;;6.08;77.10;100451.84;1796082;79;21128;-73
2021/11/07 05:33:36;;;;;;;19.05;12.20;;;;;;;6.06;77.16;100456.04;1795816;79;21010;-74
2021/11/07 05:36:02;;;;;;;20.20;12.43;;;;;;;6.01;77.32;100455.82;1768444;80;20952;-74
2021/11/07 05:38:31;;;;;;;16.70;11.53;;;;;;;5.94;77.45;100456.33;1778915;80;21383;-73
2021/11/07 05:40:57;;;;;;;17.77;12.15;;;;;;;5.93;77.67;100467.20;1743721;80;21556;-72
2021/11/07 05:43:24;;;;;;;21.85;12.58;;;;;;;5.93;77.85;100473.37;1760485;81;21583;-70
2021/11/07 05:45:50;;;;;;;21.33;12.07;;;;;;;5.96;77.94;100467.61;1750558;81;20990;-72
2021/11/07 05:48:16;;;;;;;15.23;10.08;;;;;;;6.00;77.96;100465.36;1763360;81;20959;-72
2021/11/07 05:50:44;;;;;;;17.37;10.55;;;;;;;6.02;77.98;100468.16;1763292;81;20983;-73
2021/11/07 05:53:11;;;;;;;22.22;12.35;;;;;;;6.03;77.96;100464.97;1748226;81;21505;-73
2021/11/07 05:55:37;;;;;;;17.12;11.15;;;;;;;6.02;78.01;100468.66;1736382;81;21032;-73
2021/11/07 05:58:03;;;;;;;13.72;11.78;;;;;;;6.04;78.00;100470.09;1748437;81;21604;-71
2021/11/07 06:00:31;;;;;;;19.25;11.50;;;;;;;6.01;77.96;100469.67;1732318;81;21510;-72
2021/11/07 06:03:00;;;;;;;20.20;11.55;;;;;;;5.93;78.06;100464.02;1730817;81;21512;-72
2021/11/07 06:05:26;;;;;;;17.65;11.30;;;;;;;5.89;78.32;100459.28;1747338;81;20983;-73
2021/11/07 06:07:53;;;;;;;16.62;10.72;;;;;;;5.87;78.47;100462.14;1736061;82;21089;-77
2021/11/07 06:10:19;;;;;;;13.90;9.80;;;;;;;5.88;78.53;100458.45;1711398;82;21059;-75
2021/11/07 06:12:45;;;;;;;13.28;9.98;;;;;;;5.91;78.59;100453.21;1720526;81;21020;-76
2021/11/07 06:15:14;;;;;;;11.18;9.53;;;;;;;5.89;78.63;100450.77;1749291;81;20995;-76
2021/11/07 06:17:41;;;;;;;13.85;11.45;;;;;;;5.88;78.67;100449.63;1710182;82;20996;-76
2021/11/07 06:20:10;;;;;;;16.35;11.15;;;;;;;5.88;78.64;100444.28;1739935;82;20928;-75
2021/11/07 06:22:37;;;;;;;14.78;11.15;;;;;;;5.87;78.71;100448.80;1711054;81;21500;-74
2021/11/07 06:25:04;;;;;;;22.48;11.30;;;;;;;5.88;78.77;100450.95;1724567;82;20991;-73
2021/11/07 06:27:33;;;;;;;13.43;9.45;;;;;;;5.89;78.84;100450.77;1740464;81;20960;-74
2021/11/07 06:30:05;;;;;;;13.68;10.08;;;;;;;5.92;78.81;100453.53;1754003;81;21064;-74
2021/11/07 06:32:32;;;;;;;12.73;9.75;;;;;;;5.96;78.75;100446.25;1730430;82;21465;-75
2021/11/07 06:34:59;;;;;;;13.05;10.18;;;;;;;6.01;78.71;100447.81;1707263;82;21058;-75
2021/11/07 06:37:25;;;;;;;13.20;10.90;;;;;;;6.06;78.55;100448.03;1704286;82;21018;-76
2021/11/07 06:39:52;;;;;;;12.73;10.25;;;;;;;6.10;78.33;100447.11;1726873;81;21035;-75
2021/11/07 06:42:18;;;;;;;18.23;10.58;;;;;;;6.11;78.24;100447.42;1708613;82;21115;-76
2021/11/07 06:44:44;;;;;;;12.60;9.83;;;;;;;6.13;78.17;100450.22;1734646;81;21248;-75
2021/11/07 06:47:12;;;;;;;11.90;9.48;;;;;;;6.18;78.08;100448.78;1725027;82;21516;-73
2021/11/07 06:49:39;;;;;;;10.68;8.68;;;;;;;6.24;78.03;100441.27;1724418;82;21621;-75
2021/11/07 06:52:06;;;;;;;12.07;9.25;;;;;;;6.32;77.79;100449.11;1718308;82;21023;-75
2021/11/07 06:54:32;;;;;;;13.60;11.00;;;;;;;6.39;77.52;100443.25;1763116;80;21011;-75
2021/11/07 06:56:58;;;;;;;12.85;9.58;;;;;;;6.43;77.22;100434.62;1783466;79;21044;-75
2021/11/07 06:59:25;;;;;;;14.10;10.93;;;;;;;6.48;77.06;100440.17;1758291;80;20995;-76
2021/11/07 07:01:51;;;;;;;12.55;9.18;;;;;;;6.52;76.87;100421.36;1773001;79;21058;-75
2021/11/07 07:04:17;;;;;;;14.98;10.25;;;;;;;6.57;76.59;100427.42;1755775;81;20941;-75
2021/11/07 07:06:45;;;;;;;15.25;10.82;;;;;;;6.62;76.37;100437.53;1730901;81;20958;-74
2021/11/07 07:09:14;;;;;;;16.90;11.33;;;;;;;6.68;76.22;100432.16;1732414;81;21768;-74
2021/11/07 07:11:45;;;;;;;13.18;9.30;;;;;;;6.77;75.99;100430.92;1732917;81;21106;-75
2021/11/07 07:14:19;;;;;;;13.62;9.53;;;;;;;6.86;75.62;100435.02;1698319;83;21525;-75
2021/11/07 07:16:52;;;;;;;13.45;9.83;;;;;;;6.96;75.27;100434.08;1762152;80;21039;-75
2021/11/07 07:19:42;;;;;;;14.98;10.23;;;;;;;7.06;74.83;100439.52;1761867;80;21068;-76
2021/11/07 07:29:57;;;;;;;9.73;8.63;;;;;;;7.28;73.68;100400.80;1696929;81;21571;-73
2021/11/07 07:35:06;;;;;;;11.10;9.03;;;;;;;7.41;73.22;100397.55;1732112;81;21135;-74
2021/11/07 07:37:33;;;;;;;10.65;8.48;;;;;;;7.45;72.78;100396.09;1728480;80;21520;-73
2021/11/07 07:39:59;;;;;;;12.30;8.00;;;;;;;7.50;72.50;100390.61;1736013;80;21062;-72
2021/11/07 07:42:26;;;;;;;13.62;9.25;;;;;;;7.54;72.19;100392.66;1779953;79;21057;-73
2021/11/07 07:44:53;;;;;;;11.03;8.95;;;;;;;7.59;71.81;100383.98;1763726;80;21508;-74
2021/11/07 07:47:20;;;;;;;12.90;8.60;;;;;;;7.65;71.80;100371.91;1766496;80;22138;-74
2021/11/07 07:49:50;;;;;;;19.15;10.93;;;;;;;7.74;71.57;100369.28;1793252;80;21512;-74
2021/11/07 07:52:24;;;;;;;11.75;9.08;;;;;;;7.81;71.40;100370.08;1775779;80;20980;-76
2021/11/07 07:54:46;;;;;;;10.58;8.88;;;;;;;7.91;71.30;100370.13;1766332;79;20995;-76
2021/11/07 07:57:14;;;;;;;12.45;10.55;;;;;;;7.96;70.75;100391.19;1778239;79;20991;-76
2021/11/07 07:59:40;;;;;;;14.78;9.48;;;;;;;7.99;70.42;100379.23;1749460;79;21125;-75
2021/11/07 08:02:08;;;;;;;10.90;9.73;;;;;;;8.04;70.34;100390.13;1759394;80;20980;-73
2021/11/07 08:04:34;;;;;;;12.40;9.40;;;;;;;8.09;70.19;100377.73;1767916;79;21577;-77
2021/11/07 08:07:01;;;;;;;13.22;10.98;;;;;;;8.15;70.01;100392.13;1795704;79;21043;-74
2021/11/07 08:09:27;;;;;;;11.55;9.65;;;;;;;8.17;69.41;100385.49;1770587;79;21532;-72
2021/11/07 08:11:55;;;;;;;14.38;11.00;;;;;;;8.21;69.58;100385.36;1794919;79;21001;-75
2021/11/07 08:14:22;;;;;;;11.73;10.15;;;;;;;8.26;69.41;100372.13;1780886;79;20940;-76
2021/11/07 08:16:48;;;;;;;18.10;13.43;;;;;;;8.34;69.56;100379.13;1793487;79;20986;-73
2021/11/07 08:19:16;;;;;;;15.28;10.68;;;;;;;8.39;69.13;100368.57;1767423;80;21075;-74
2021/11/07 08:21:43;;;;;;;11.05;9.45;;;;;;;8.44;69.01;100366.02;1771470;79;21141;-82
2021/11/07 08:24:11;;;;;;;11.85;9.10;;;;;;;8.50;68.88;100370.52;1791149;79;24581;-73
2021/11/07 08:26:42;;;;;;;13.10;10.18;;;;;;;8.56;68.64;100358.92;1793964;79;21000;-71
2021/11/07 08:29:12;;;;;;;11.40;8.60;;;;;;;8.62;68.21;100363.41;1778836;79;21023;-73
2021/11/07 08:31:39;;;;;;;14.50;10.20;;;;;;;8.67;68.22;100365.44;1774819;79;20984;-73
2021/11/07 08:34:06;;;;;;;10.40;8.45;;;;;;;8.72;68.01;100362.39;1794278;79;21012;-72
2021/11/07 08:36:53;;;;;;;9.75;8.80;;;;;;;8.76;67.78;100360.08;1793379;79;22313;-73
2021/11/07 08:39:21;;;;;;;13.95;10.88;;;;;;;8.84;67.71;100352.25;1784284;80;21590;-73
2021/11/07 08:41:54;;;;;;;13.08;9.60;;;;;;;8.88;67.32;100360.97;1780678;79;20998;-75
2021/11/07 09:00:27;;;;;;;10.95;9.73;;;;;;;9.30;66.70;100335.64;1727928;81;20944;-76
2021/11/07 09:03:19;;;;;;;15.88;9.88;;;;;;;9.37;66.55;100314.37;1795117;79;20976;-76
2021/11/07 09:05:54;;;;;;;13.80;9.55;;;;;;;9.44;66.18;100322.34;1769463;80;21050;-76
2021/11/07 09:08:17;;;;;;;10.25;8.95;;;;;;;9.49;65.92;100315.77;1789136;79;20919;-73
2021/11/07 09:10:44;;;;;;;12.55;9.38;;;;;;;9.54;65.63;100305.97;1790720;80;21172;-77
2021/11/07 09:13:11;;;;;;;11.68;9.00;;;;;;;9.59;65.23;100312.81;1767969;80;21084;-76
2021/11/07 09:15:40;;;;;;;10.20;9.13;;;;;;;9.63;64.86;100311.86;1788217;80;21924;-78
2021/11/07 09:18:09;;;;;;;15.43;10.70;;;;;;;9.69;64.70;100304.76;1790763;80;20973;-78
2021/11/07 09:28:10;;;;;;;15.53;11.50;;;;;;;9.90;64.33;100284.06;1791005;80;21528;-73
2021/11/07 09:30:43;;;;;;;12.65;9.50;;;;;;;9.96;64.23;100285.31;1762348;81;21045;-73
2021/11/07 09:38:09;;;;;;;14.55;8.65;;;;;;;10.16;62.85;100268.89;1768664;80;21041;-74
2021/11/07 09:40:37;;;;;;;11.22;8.25;;;;;;;10.20;62.56;100269.24;1768443;80;21097;-72
2021/11/07 09:48:20;;;;;;;16.65;9.75;;;;;;;10.29;62.09;100272.69;1790952;80;21034;-72
2021/11/07 09:50:45;;;;;;;16.27;10.10;;;;;;;10.35;62.21;100270.94;1790507;79;21567;-74
2021/11/07 09:53:14;;;;;;;14.18;9.70;;;;;;;10.40;61.87;100266.50;1789035;80;21013;-74
2021/11/07 09:55:41;;;;;;;15.72;9.70;;;;;;;10.43;61.44;100247.72;1791296;80;21437;-75
2021/11/07 09:58:08;;;;;;;12.53;10.00;;;;;;;10.47;61.34;100249.70;1791152;80;21492;-76
2021/11/07 10:00:43;;;;;;;14.50;10.38;;;;;;;10.51;61.13;100252.73;1767750;80;20916;-77
2021/11/07 10:03:30;;;;;;;15.78;10.90;;;;;;;10.53;60.99;100245.27;1790581;79;21048;-76
2021/11/07 10:06:03;;;;;;;11.22;8.63;;;;;;;10.57;60.65;100226.25;1748772;81;21027;-74
2021/11/07 10:08:43;;;;;;;11.65;9.45;;;;;;;10.63;60.50;100228.00;1761792;81;21034;-76
2021/11/07 10:11:09;;;;;;;12.10;8.68;;;;;;;10.67;60.17;100217.58;1767404;79;21594;-76
2021/11/07 10:13:36;;;;;;;11.08;9.13;;;;;;;10.73;59.83;100210.73;1792164;79;21601;-77
2021/11/07 10:16:12;;;;;;;11.35;9.25;;;;;;;10.72;59.56;100192.13;1793411;80;20974;-77
2021/11/07 10:18:47;;;;;;;11.85;9.05;;;;;;;10.75;59.48;100195.15;1766195;80;21065;-79
2021/11/07 10:21:22;;;;;;;13.13;9.95;;;;;;;10.78;59.45;100183.11;1792330;80;21033;-76
2021/11/07 10:24:15;;;;;;;12.68;9.90;;;;;;;10.82;59.40;100181.56;1765724;80;21066;-78
2021/11/07 10:26:43;;;;;;;9.60;8.60;;;;;;;10.90;59.06;100189.25;1793100;80;21005;-76
2021/11/07 10:29:11;;;;;;;7.92;6.60;;;;;;;10.94;58.53;100189.05;1786636;79;21040;-77
2021/11/07 10:31:47;;;;;;;9.05;7.50;;;;;;;10.97;57.80;100186.43;1775070;79;21119;-77
2021/11/07 10:45:25;;;;;;;14.45;8.13;;;;;;;11.02;57.47;100181.97;1771847;79;21298;-79
2021/11/07 10:53:29;;;;;;;14.85;9.90;;;;;;;11.21;57.56;100183.92;1753937;80;21080;-77
2021/11/07 10:56:03;;;;;;;19.85;9.63;;;;;;;11.26;57.23;100167.34;1793845;79;21015;-75
2021/11/07 10:58:41;;;;;;;14.45;9.28;;;;;;;11.30;57.50;100169.83;1793369;80;21124;-73
2021/11/07 11:01:11;;;;;;;14.53;9.75;;;;;;;11.36;57.34;100172.08;1758868;80;20998;-77
2021/11/07 11:03:44;;;;;;;16.48;10.32;;;;;;;11.38;57.28;100174.80;1787321;79;20978;-73
2021/11/07 11:06:16;;;;;;;12.03;8.13;;;;;;;11.44;56.54;100169.51;1766462;80;20991;-74
2021/11/07 11:08:57;;;;;;;13.13;9.05;;;;;;;11.50;56.19;100155.89;1791780;80;21030;-74
2021/11/07 11:11:31;;;;;;;12.70;10.55;;;;;;;11.56;55.65;100157.58;1801950;79;21555;-74
2021/11/07 11:27:31;;;;;;;14.93;10.58;;;;;;;11.99;53.64;100123.23;1703561;80;20934;-75
2021/11/07 11:29:43;;;;;;;8.93;6.53;;;;;;;12.01;53.17;100133.78;1777829;80;21029;-73
2021/11/07 11:34:32;;;;;;;11.20;7.80;;;;;;;11.95;52.65;100138.81;1787220;79;21042;-75
2021/11/07 11:37:38;;;;;;;12.53;8.95;;;;;;;11.88;52.70;100141.70;1756337;81;21963;-73
2021/11/07 11:39:36;;;;;;;10.08;7.47;;;;;;;11.87;53.32;100134.66;1743475;81;21588;-72
2021/11/07 11:42:21;;;;;;;10.75;8.10;;;;;;;11.92;53.51;100116.41;1738180;80;20925;-73
2021/11/07 11:44:30;;;;;;;11.68;9.40;;;;;;;11.91;53.96;100106.15;1727147;81;21133;-73
2021/11/07 11:47:39;;;;;;;15.58;10.68;;;;;;;11.84;54.48;100101.48;1715822;81;21114;-72
2021/11/07 11:52:34;;;;;;;15.80;11.03;;;;;;;11.80;55.04;100090.89;1686554;83;20959;-73
2021/11/07 11:55:15;;;;;;;16.48;11.63;;;;;;;11.74;55.20;100091.90;1761774;80;21500;-72
2021/11/07 12:05:46;;;;;;;11.83;9.93;;;;;;;11.58;55.84;100074.66;1755448;81;20917;-73
2021/11/07 12:08:24;;;;;;;13.30;10.35;;;;;;;11.57;55.86;100060.08;1792149;79;21080;-71
2021/11/07 12:10:59;;;;;;;13.75;10.82;;;;;;;11.53;55.93;100071.06;1791091;79;20889;-73
2021/11/07 12:13:45;;;;;;;13.53;11.35;;;;;;;11.45;56.30;100058.84;1777911;80;21529;-71
2021/11/07 12:16:14;;;;;;;12.18;10.75;;;;;;;11.48;56.50;100073.16;1777793;80;21816;-74
2021/11/07 12:19:09;;;;;;;13.45;10.13;;;;;;;11.51;56.64;100063.78;1779846;80;21537;-71
2021/11/07 12:21:56;;;;;;;12.70;10.98;;;;;;;11.51;56.70;100061.88;1768826;80;20971;-72
2021/11/07 12:24:26;;;;;;;17.17;13.72;;;;;;;11.57;56.60;100064.12;1791447;80;20992;-72
2021/11/07 12:26:52;;;;;;;14.45;9.68;;;;;;;11.56;56.48;100055.77;1791034;79;21039;-73
2021/11/07 12:29:38;;;;;;;17.23;11.97;;;;;;;11.55;56.41;100054.95;1784023;80;21365;-71
2021/11/07 12:32:06;;;;;;;14.33;10.68;;;;;;;11.51;56.75;100051.66;1759211;80;21576;-72
2021/11/07 12:35:07;;;;;;;15.10;10.00;;;;;;;11.49;56.74;100051.89;1754608;81;21035;-72
2021/11/07 12:40:57;;;;;;;16.42;11.25;;;;;;;11.41;57.32;100027.27;1733051;81;21039;-72
2021/11/07 12:43:45;;;;;;;11.28;9.90;;;;;;;11.43;57.01;100035.89;1732619;81;21524;-70
2021/11/07 12:49:26;;;;;;;14.60;10.72;;;;;;;11.35;57.11;100018.29;1754463;81;20960;-72
2021/11/07 12:51:56;;;;;;;11.22;10.08;;;;;;;11.33;57.51;100005.59;1754623;81;20937;-73
2021/11/07 12:54:30;;;;;;;13.75;11.90;;;;;;;11.30;57.73;100001.52;1733017;81;21031;-72
2021/11/07 12:57:16;;;;;;;11.05;9.65;;;;;;;11.28;57.88;99998.25;1754513;81;21087;-72
2021/11/07 12:59:50;;;;;;;14.10;10.60;;;;;;;11.28;58.01;100005.51;1791161;80;21006;-72
2021/11/07 13:02:31;;;;;;;14.87;10.50;;;;;;;11.21;58.19;100004.88;1791226;80;21039;-71
2021/11/07 13:05:11;;;;;;;15.83;11.57;;;;;;;11.16;58.44;100009.66;1791123;79;20991;-71
2021/11/07 13:07:50;;;;;;;13.72;10.43;;;;;;;11.15;58.36;100012.06;1793629;79;21539;-71
2021/11/07 13:21:46;;;;;;;18.65;12.28;;;;;;;11.06;59.11;99995.22;1798650;79;21073;-71
2021/11/07 13:26:52;;;;;;;11.83;10.53;;;;;;;11.02;59.48;99991.39;1782583;79;21505;-72
2021/11/07 13:35:01;;;;;;;20.50;13.35;;;;;;;10.92;60.26;99967.83;1793302;79;21480;-73
2021/11/07 13:37:57;;;;;;;16.60;12.20;;;;;;;10.85;60.57;99969.32;1793634;80;21744;-70
2021/11/07 13:40:30;;;;;;;17.70;14.38;;;;;;;10.84;60.82;99970.91;1765560;81;20932;-70
2021/11/07 13:43:01;;;;;;;;;;;;;;;10.77;61.09;99975.12;1763190;80;21481;-71
2021/11/07 13:45:30;;;;;;;17.57;11.68;;;;;;;10.71;61.37;99973.39;1792968;80;20171;-73
2021/11/07 13:48:00;;;;;;;18.85;15.50;;;;;;;10.66;61.54;99972.48;1793111;80;20999;-73
2021/11/07 13:50:32;;;;;;;19.05;13.40;;;;;;;10.55;61.75;99961.30;1792777;80;21084;-71